Alaska, Minnesota
Current Conditions -  °F | °C
As of 12:52 AM on Monday 24 Nov 2014 (Local Time) from KBJI Reporting Station
Overcast Overcast  
Wind Chill: -15°   Ceiling: 500
Heat Index: -7°   Visibility: 10mi
Dew Point: -8°   Wind: 15mph
Humidity: 94%   Direction: 280°W
Pressure: 29.42"   Gusts: NA
Location:  47.7369°N, 94.9947°W
Report Text: KBJI 240652Z AUTO 28013KT 10SM OVC005 M07/M08 A2942 RMK AO2 T10731081
Loading
Personal Weather Stations






























Interactive Weather Map New forecast layout! Learn more

10-Day Weather Forecast

Advertisements
Track Severe Weather on mobile